• Join FlightAware (Why Join?)
  • Login
  • US Flag 
02:20AM EDT


 

Airport Tracker/Info


-or-


 

Live Flight TrackerFlight Track Log ✈ RPA3411 ✈ 28-Oct-2013 ✈ KPWM - KPHL

Flight Track Log - Related Links

Times and Time Zones

All times are in EDT time to prevent confusion due to time zone crossing. See the RPA3411 flight status page for this flight to view local times or setup timezone preferences in your user account.

Time Position Orientation Groundspeed Altitude Reporting Facility
EDT Latitude Longitude Course Direction KTS MPH feet Rate Location/Type
06:23PM 43.6547 -70.4428 216° Southwest 213 245 4,900  Level Boston Center
06:24PM 43.4729 -70.2468 229° Southwest  Level FlightAware Approximate
06:24PM 43.6603 -70.5403 275° West 254 292 9,200  Level Boston Center
06:25PM 43.4198 -70.3437 235° Southwest  Level FlightAware Approximate
06:25PM 43.5922 -70.5919 209° Southwest 314 361 10,100  Level Boston Center
06:26PM 43.3587 -70.4312 226° Southwest  Level FlightAware Approximate
06:26PM 43.4956 -70.6206 192° South 331 381 13,500  Level Boston Center
06:27PM 43.3012 -70.5230 232° Southwest  Level FlightAware Approximate
06:27PM 43.4072 -70.6464 192° South 327 376 16,900  Level Boston Center
06:28PM 43.2395 -70.6105 216° Southwest  Level FlightAware Approximate
06:28PM 43.3206 -70.6739 193° South 335 386 19,200  Level Boston Center
06:29PM 43.2322 -70.6992 192° South 338 389 21,800 2,700 Climbing Boston Center
06:30PM 43.1231 -70.7492 198° South 344 396 24,800 2,400 Climbing Boston Center
06:31PM 43.0394 -70.8094 208° Southwest 341 392 26,800 1,560 Climbing Boston Center
06:32PM 42.9533 -70.8714 208° Southwest 348 400 28,000 540 Climbing Boston Center
06:33PM 42.8664 -70.9308 207° Southwest 351 404 28,000  Level Boston Center
06:34PM 42.7750 -70.9853 204° Southwest 357 411 28,000 120 Level Boston Center
06:35PM 42.6806 -71.0300 199° South 360 414 28,300 900 Climbing Boston Center
06:36PM 42.5947 -71.0958 209° Southwest 357 411 29,900 780 Climbing Boston Center
06:37PM 42.5147 -71.1719 215° Southwest 353 406 30,000  Climbing Boston Center
06:38PM 42.4192 -71.2636 215° Southwest 353 406 30,000  Level Boston Center
06:39PM 42.3392 -71.3392 215° Southwest 353 406 30,000  Level Boston Center
06:40PM 42.2656 -71.4100 215° Southwest 354 407 30,000  Level Boston Center
06:41PM 42.1844 -71.4853 215° Southwest 354 407 30,000  Level Boston Center
06:42PM 42.1039 -71.5608 215° Southwest 353 406 30,000  Level Boston Center
06:43PM 42.0233 -71.6364 215° Southwest 353 406 30,000  Level Boston Center
06:45PM 41.9411 -71.7108 214° Southwest 356 410 30,000  Level Boston Center
06:46PM 41.8428 -71.8044 215° Southwest 359 413 30,000  Level Boston Center
06:47PM 41.7597 -71.8806 214° Southwest 361 415 30,000  Level Boston Center
06:48PM 41.6772 -71.9567 215° Southwest 361 415 30,000  Level Boston Center
06:49PM 41.5939 -72.0322 214° Southwest 362 417 30,000  Level Boston Center
06:50PM 41.5081 -72.1114 215° Southwest 362 417 30,000  Level Boston Center
06:51PM 41.4247 -72.1875 214° Southwest 362 417 30,000  Level Boston Center
06:52PM 41.3408 -72.2636 214° Southwest 365 420 30,000  Level Boston Center
06:53PM 41.2592 -72.3386 215° Southwest 367 422 30,000  Level Boston Center
06:54PM 41.1739 -72.4172 215° Southwest 371 427 30,000  Level Boston Center
06:55PM 41.0892 -72.4933 214° Southwest 368 423 30,000  Level Boston Center
06:56PM 40.9864 -72.5842 214° Southwest 374 430 30,000  Level Boston Center
06:57PM 40.9008 -72.6656 216° Southwest 381 438 30,000 -240 Level Boston Center
06:58PM 40.8156 -72.7406 214° Southwest 376 433 29,600 -1,200 Descending Boston Center
06:59PM 40.7281 -72.8175 214° Southwest 371 427 27,600 -1,920 Descending Boston Center
07:00PM 40.6442 -72.8919 214° Southwest 365 420 25,700 -1,920 Descending Boston Center
07:01PM 40.5617 -72.9644 214° Southwest 360 414 23,800 -1,860 Descending Boston Center
07:02PM 40.4806 -73.0378 215° Southwest 353 406 21,900 -1,800 Descending Boston Center
07:03PM 40.4006 -73.1078 214° Southwest 346 398 20,100 -960 Descending Boston Center
07:04PM 40.3206 -73.1778 214° Southwest 346 398 20,000 -60 Descending Boston Center
07:05PM 40.2408 -73.2475 214° Southwest 346 398 20,000  Level Boston Center
07:06PM 40.1542 -73.3239 214° Southwest 346 398 20,000  Level Boston Center
07:07PM 40.0744 -73.3936 214° Southwest 345 397 20,000  Level Boston Center
07:08PM 39.9933 -73.4628 213° Southwest 346 398 20,000  Level Boston Center
07:09PM 39.9039 -73.5422 214° Southwest 348 400 20,000  Level Boston Center
07:10PM 39.8419 -73.6372 230° Southwest 344 396 20,000  Level Boston Center
07:11PM 39.7817 -73.7331 231° Southwest 342 394 20,000 -60 Level Boston Center
07:12PM 39.7208 -73.8294 231° Southwest 345 397 19,900 -960 Descending Boston Center
07:13PM 39.6458 -73.9450 230° Southwest 347 399 18,000 -1,860 Descending Washington Center
07:14PM 39.5867 -74.0378 230° Southwest 347 399 15,900 -1,920 Descending Washington Center
07:15PM 39.5358 -74.1278 234° Southwest 333 383 14,200 -1,440 Descending Washington Center
07:16PM 39.5244 -74.2383 262° West 304 350 13,100 -1,020 Descending Washington Center
07:17PM 39.5278 -74.3458 272° West 303 349 12,200 -900 Descending Washington Center
07:18PM 39.5308 -74.4533 272° West 303 349 11,400 -900 Descending Washington Center
07:20PM 39.5333 -74.6500 271° West 271 312 9,700 -840 Descending Philadelphia TRACON
07:21PM 39.5333 -74.7500 270° West 277 319 9,000 -660 Descending Philadelphia TRACON
07:22PM 39.5333 -74.8500 270° West 274 315 8,400 -660 Descending Philadelphia TRACON
07:23PM 39.5333 -74.9500 270° West 229 264 7,700 -720 Descending Philadelphia TRACON
07:24PM 39.5333 -75.0333 270° West 230 265 7,000 -360 Descending Philadelphia TRACON
07:25PM 39.5833 -75.0833 322° Northwest 226 260 7,000  Level Philadelphia TRACON
07:26PM 39.6333 -75.1333 322° Northwest 208 239 7,000 -300 Level Philadelphia TRACON
07:27PM 39.6833 -75.1667 333° Northwest 199 229 6,500 -480 Descending Philadelphia TRACON
07:28PM 39.7333 -75.1833 346° North 203 234 6,100 -300 Descending Philadelphia TRACON
07:29PM 39.7667 -75.1333 49° Northeast 215 247 6,000 -60 Descending Philadelphia TRACON
07:30PM 39.7667 -75.0667 90° East 215 247 6,000  Level Philadelphia TRACON
07:31PM 39.7833 -74.9833 75° East 215 247 6,000 -240 Level Philadelphia TRACON
07:32PM 39.8000 -74.9167 72° East 213 245 5,600 -600 Descending Philadelphia TRACON
07:33PM 39.8667 -74.9000 11° North 199 229 4,800 -1,140 Descending Philadelphia TRACON
07:34PM 39.9000 -74.9500 311° West 191 220 3,300 -1,020 Descending Philadelphia TRACON
07:35PM 39.9000 -75.0167 270° West 181 208 2,800 -540 Descending Philadelphia TRACON
07:36PM 39.9000 -75.0833 270° West 165 190 2,300 -720 Descending Philadelphia TRACON
07:37PM 39.9000 -75.1333 270° West 153 176 1,400 -840 Descending Philadelphia TRACON
07:38PM 39.8833 -75.1833 247° West 117 135 700 -720 Descending Philadelphia TRACON